Time;durP1;ratioP1;P1;durP2;ratioP2;P2;SDS_P1;SDS_P2;PMS_P1;PMS_P2;Temp;Humidity;BMP_temperature;BMP_pressure;BME280_temperature;BME280_humidity;BME280_pressure;Samples;Min_cycle;Max_cycle;Signal;HPM_P1;HPM_P2
2023/04/27 00:00:55;;;;;;;4.07;3.67;;;9.60;99.00;;;;;;4891531;29;20180;-85
2023/04/27 00:03:20;;;;;;;7.60;4.10;;;9.80;99.50;;;;;;4885186;29;20592;-86
2023/04/27 00:05:46;;;;;;;4.03;3.30;;;9.80;99.50;;;;;;4884255;29;20224;-85
2023/04/27 00:08:12;;;;;;;4.30;3.90;;;9.50;99.40;;;;;;4900809;29;20263;-86
2023/04/27 00:10:37;;;;;;;6.67;3.93;;;9.80;99.70;;;;;;4874880;29;20598;-86
2023/04/27 00:13:03;;;;;;;5.20;4.70;;;10.10;99.40;;;;;;4880999;29;20884;-86
2023/04/27 00:15:29;;;;;;;5.60;4.60;;;9.70;99.90;;;;;;4876901;29;20229;-86
2023/04/27 00:17:56;;;;;;;4.53;4.15;;;9.50;99.70;;;;;;4879788;29;20185;-86
2023/04/27 00:20:22;;;;;;;5.82;4.13;;;9.60;99.90;;;;;;4894157;29;20238;-85
2023/04/27 00:22:48;;;;;;;4.75;3.85;;;10.10;99.40;;;;;;4894324;29;20291;-85
2023/04/27 00:25:13;;;;;;;4.37;3.77;;;9.60;99.70;;;;;;4878697;29;20241;-86
2023/04/27 00:27:39;;;;;;;4.40;4.00;;;9.80;99.90;;;;;;4877739;29;20204;-86
2023/04/27 00:30:05;;;;;;;5.90;4.17;;;9.40;99.90;;;;;;4877088;29;20325;-85
2023/04/27 00:32:30;;;;;;;4.03;3.72;;;9.30;99.90;;;;;;4879870;29;20698;-84
2023/04/27 00:34:56;;;;;;;4.37;4.07;;;9.60;99.90;;;;;;4877021;29;20211;-84
2023/04/27 00:37:21;;;;;;;6.40;4.30;;;10.80;99.90;;;;;;4874836;29;20196;-85
2023/04/27 00:39:47;;;;;;;5.00;3.43;;;9.80;99.90;;;;;;4878273;29;20178;-86
2023/04/27 00:42:16;;;;;;;3.77;3.47;;;9.50;99.90;;;;;;4884364;29;20212;-85
2023/04/27 00:44:41;;;;;;;5.15;4.75;;;9.70;99.90;;;;;;4900863;29;20199;-85
2023/04/27 00:47:07;;;;;;;4.77;4.37;;;9.80;99.90;;;;;;4877332;29;20197;-85
2023/04/27 00:49:32;;;;;;;4.63;3.77;;;10.00;99.90;;;;;;4878041;29;20294;-85
2023/04/27 00:51:59;;;;;;;3.77;3.47;;;9.80;99.90;;;;;;4878213;29;20303;-85
2023/04/27 00:54:25;;;;;;;4.13;3.80;;;9.10;99.90;;;;;;4879701;29;20211;-84
2023/04/27 00:56:51;;;;;;;4.33;3.73;;;9.70;99.90;;;;;;4894556;29;20192;-86
2023/04/27 00:59:18;;;;;;;5.38;3.58;;;9.40;99.90;;;;;;4891905;29;20217;-85
2023/04/27 01:01:47;;;;;;;4.13;3.72;;;9.20;99.90;;;;;;4893762;29;20203;-85
2023/04/27 01:04:13;;;;;;;5.03;4.22;;;9.10;99.90;;;;;;4900771;29;20193;-85
2023/04/27 01:06:38;;;;;;;6.70;4.10;;;9.50;99.90;;;;;;4884065;29;20294;-83
2023/04/27 01:09:05;;;;;;;4.20;3.80;;;9.60;99.90;;;;;;4886994;29;20212;-84
2023/04/27 01:11:32;;;;;;;3.90;3.58;;;9.10;99.90;;;;;;4897210;29;20228;-84
2023/04/27 01:14:04;;;;;;;5.30;3.42;;;9.80;99.90;;;;;;4879147;29;20189;-83
2023/04/27 01:16:31;;;;;;;5.20;3.95;;;9.30;99.90;;;;;;4880763;29;20184;-83
2023/04/27 01:18:57;;;;;;;6.43;3.67;;;9.70;99.90;;;;;;4896536;29;20200;-84
2023/04/27 01:21:22;;;;;;;3.73;3.43;;;8.90;99.90;;;;;;4893485;29;20276;-85
2023/04/27 01:23:48;;;;;;;4.03;3.67;;;9.30;99.90;;;;;;4879333;29;20610;-83
2023/04/27 01:26:15;;;;;;;4.43;3.80;;;9.40;99.90;;;;;;4884548;29;20203;-83
2023/04/27 01:28:41;;;;;;;6.40;5.75;;;9.30;99.90;;;;;;4891835;29;20203;-83
2023/04/27 01:31:07;;;;;;;5.95;5.35;;;9.30;99.90;;;;;;4876606;29;20208;-84
2023/04/27 01:33:32;;;;;;;5.13;4.10;;;9.60;99.90;;;;;;4883233;29;20244;-83
2023/04/27 01:35:58;;;;;;;4.37;3.50;;;9.30;99.90;;;;;;4895849;29;20834;-84
2023/04/27 01:38:23;;;;;;;3.97;3.50;;;9.20;99.90;;;;;;4884566;29;20291;-84
2023/04/27 01:40:49;;;;;;;5.00;3.40;;;9.10;99.90;;;;;;4894499;29;20192;-83
2023/04/27 01:43:15;;;;;;;5.73;3.70;;;9.40;99.90;;;;;;4882301;29;20189;-83
2023/04/27 01:45:40;;;;;;;4.70;3.83;;;9.10;99.90;;;;;;4874985;29;20622;-83
2023/04/27 01:48:06;;;;;;;5.17;3.80;;;9.20;99.90;;;;;;4884088;29;20200;-84
2023/04/27 01:50:31;;;;;;;6.37;3.80;;;8.70;99.90;;;;;;4870834;29;20224;-84
2023/04/27 01:52:57;;;;;;;5.90;4.03;;;8.90;99.90;;;;;;4880586;29;20586;-83
2023/04/27 01:55:22;;;;;;;6.00;4.60;;;8.90;99.90;;;;;;4879861;29;20228;-83
2023/04/27 01:57:48;;;;;;;6.93;4.57;;;9.00;99.90;;;;;;4889472;29;20184;-84
2023/04/27 02:00:14;;;;;;;4.30;3.90;;;9.30;99.90;;;;;;4889319;29;20192;-83
2023/04/27 02:02:40;;;;;;;5.95;4.03;;;8.90;99.90;;;;;;4893459;29;20526;-84
2023/04/27 02:05:06;;;;;;;4.40;4.00;;;8.90;99.90;;;;;;4889732;29;20536;-83
2023/04/27 02:07:32;;;;;;;4.07;3.67;;;8.90;99.90;;;;;;4883036;29;20197;-84
2023/04/27 02:09:57;;;;;;;7.83;4.43;;;9.40;99.90;;;;;;4882556;29;20244;-83
2023/04/27 02:12:23;;;;;;;6.00;3.93;;;8.90;99.90;;;;;;4880425;29;20212;-84
2023/04/27 02:14:48;;;;;;;7.03;3.87;;;8.70;99.90;;;;;;4878968;29;20204;-84
2023/04/27 02:17:14;;;;;;;5.27;3.80;;;9.30;99.90;;;;;;4876440;29;20187;-83
2023/04/27 02:19:39;;;;;;;6.20;4.40;;;8.70;99.90;;;;;;4880587;29;20192;-83
2023/04/27 02:22:05;;;;;;;4.27;3.90;;;8.80;99.90;;;;;;4897515;29;20223;-84
2023/04/27 02:24:30;;;;;;;5.17;3.97;;;8.80;99.90;;;;;;4892075;29;20199;-83
2023/04/27 02:26:56;;;;;;;6.70;4.83;;;8.80;99.90;;;;;;4886974;29;20647;-84
2023/04/27 02:29:22;;;;;;;5.33;4.20;;;8.80;99.90;;;;;;4880686;29;20244;-83
2023/04/27 02:31:47;;;;;;;3.90;3.50;;;9.20;99.90;;;;;;4877623;29;20475;-83
2023/04/27 02:34:13;;;;;;;4.10;3.70;;;9.30;99.90;;;;;;4902359;29;20215;-83
2023/04/27 02:36:38;;;;;;;5.60;4.00;;;9.00;99.90;;;;;;4879306;29;20188;-84
2023/04/27 02:39:04;;;;;;;5.33;4.30;;;9.00;99.90;;;;;;4878408;29;20184;-84
2023/04/27 02:41:33;;;;;;;4.00;3.70;;;9.00;99.90;;;;;;4876978;29;20287;-83
2023/04/27 02:43:59;;;;;;;4.95;4.10;;;9.00;99.90;;;;;;4883560;29;20537;-83
2023/04/27 02:46:25;;;;;;;5.57;3.65;;;8.80;99.90;;;;;;4884140;29;20183;-83
2023/04/27 02:48:51;;;;;;;4.78;4.20;;;9.00;99.90;;;;;;4905030;29;20188;-84
2023/04/27 02:51:16;;;;;;;5.03;3.93;;;9.00;99.90;;;;;;4903819;29;20312;-84
2023/04/27 02:53:42;;;;;;;5.20;4.40;;;9.40;99.90;;;;;;4880247;29;20279;-83
2023/04/27 02:56:07;;;;;;;4.30;3.90;;;9.00;99.90;;;;;;4885175;29;20217;-85
2023/04/27 02:58:33;;;;;;;6.30;4.07;;;11.10;99.90;;;;;;4878200;29;20193;-84
2023/04/27 03:01:00;;;;;;;4.47;4.13;;;8.90;99.90;;;;;;4879549;29;20236;-85
2023/04/27 03:03:25;;;;;;;5.30;3.88;;;9.00;99.90;;;;;;4902934;29;20336;-84
2023/04/27 03:05:51;;;;;;;5.57;4.20;;;8.90;99.90;;;;;;4883085;29;20246;-84
2023/04/27 03:08:16;;;;;;;5.73;4.97;;;8.90;99.90;;;;;;4884795;29;20275;-84
2023/04/27 03:10:42;;;;;;;8.40;4.53;;;8.80;99.90;;;;;;4905233;29;20660;-85
2023/04/27 03:13:07;;;;;;;5.60;3.93;;;8.60;99.90;;;;;;4886157;29;20192;-84
2023/04/27 03:15:34;;;;;;;5.07;4.47;;;8.80;99.90;;;;;;4879541;29;20224;-84
2023/04/27 03:17:59;;;;;;;5.50;4.53;;;8.90;99.90;;;;;;4878038;29;20192;-84
2023/04/27 03:20:25;;;;;;;6.00;4.97;;;9.10;99.90;;;;;;4899316;29;20583;-84
2023/04/27 03:22:51;;;;;;;4.90;4.47;;;9.00;99.90;;;;;;4878123;29;20223;-84
2023/04/27 03:25:16;;;;;;;4.90;4.50;;;9.00;99.90;;;;;;4897651;29;20216;-84
2023/04/27 03:27:42;;;;;;;6.80;4.50;;;8.70;99.90;;;;;;4885715;29;20195;-84
2023/04/27 03:30:08;;;;;;;6.67;4.57;;;8.90;99.90;;;;;;4880247;29;20204;-84
2023/04/27 03:32:34;;;;;;;7.13;4.10;;;8.90;99.90;;;;;;4880381;29;20688;-84
2023/04/27 03:34:59;;;;;;;4.93;4.13;;;9.10;99.90;;;;;;4886477;29;20275;-84
2023/04/27 03:37:25;;;;;;;6.90;5.30;;;9.50;99.90;;;;;;4888032;29;20192;-84
2023/04/27 03:39:51;;;;;;;5.32;4.68;;;9.20;99.90;;;;;;4896675;29;20199;-84
2023/04/27 03:42:17;;;;;;;5.47;4.70;;;9.10;99.90;;;;;;4889412;29;20460;-84
2023/04/27 03:44:42;;;;;;;5.10;4.50;;;9.00;99.90;;;;;;4881618;29;20661;-84
2023/04/27 03:47:08;;;;;;;6.23;4.30;;;9.50;99.90;;;;;;4879058;29;20184;-84
2023/04/27 03:49:37;;;;;;;6.00;4.70;;;9.40;99.90;;;;;;4883373;29;20206;-84
2023/04/27 03:52:03;;;;;;;4.68;4.28;;;9.00;99.90;;;;;;4881465;29;20490;-84
2023/04/27 03:54:30;;;;;;;5.00;4.20;;;9.10;99.90;;;;;;4891181;29;20223;-85
2023/04/27 03:56:56;;;;;;;6.78;4.40;;;9.40;99.90;;;;;;4905142;29;20263;-84
2023/04/27 03:59:21;;;;;;;4.83;4.17;;;8.90;99.90;;;;;;4881426;29;20223;-84
2023/04/27 04:01:47;;;;;;;6.47;5.87;;;8.90;99.90;;;;;;4878104;29;20290;-84
2023/04/27 04:04:12;;;;;;;5.40;4.90;;;9.00;99.90;;;;;;4884015;29;20202;-84
2023/04/27 04:06:38;;;;;;;8.47;4.77;;;9.30;99.90;;;;;;4885115;29;20164;-85
2023/04/27 04:09:03;;;;;;;8.93;5.73;;;9.00;99.90;;;;;;4899593;29;20225;-86
2023/04/27 04:11:29;;;;;;;5.73;4.83;;;8.80;99.90;;;;;;4894244;29;20240;-87
2023/04/27 04:13:55;;;;;;;5.70;4.70;;;9.00;99.90;;;;;;4882371;29;20256;-86
2023/04/27 04:16:20;;;;;;;5.47;4.90;;;9.30;99.90;;;;;;4882719;29;20186;-86
2023/04/27 04:18:46;;;;;;;7.03;5.37;;;9.10;99.90;;;;;;4880625;29;20183;-86
2023/04/27 04:21:12;;;;;;;5.83;5.10;;;9.40;99.90;;;;;;4883236;29;20677;-84
2023/04/27 04:23:39;;;;;;;6.20;5.15;;;9.10;99.90;;;;;;4898664;29;20259;-87
2023/04/27 04:26:06;;;;;;;6.13;5.40;;;9.30;99.90;;;;;;4918529;23;20246;-65
2023/04/27 04:28:32;;;;;;;6.27;5.03;;;8.90;99.90;;;;;;4897366;29;20252;-61
2023/04/27 04:30:59;;;;;;;6.03;5.27;;;9.00;99.90;;;;;;4883609;29;20670;-61
2023/04/27 04:33:25;;;;;;;6.15;5.25;;;9.10;99.90;;;;;;4884928;29;20974;-61
2023/04/27 04:35:52;;;;;;;7.88;5.00;;;9.20;99.90;;;;;;4886051;29;20274;-61
2023/04/27 04:38:17;;;;;;;5.95;5.15;;;9.30;99.90;;;;;;4883153;29;20198;-62
2023/04/27 04:40:43;;;;;;;6.33;5.50;;;9.20;99.90;;;;;;4889574;29;20268;-62
2023/04/27 04:43:09;;;;;;;6.23;5.50;;;9.30;99.90;;;;;;4883175;29;20196;-62
2023/04/27 04:45:35;;;;;;;7.30;5.60;;;9.00;99.90;;;;;;4883893;29;20194;-62
2023/04/27 04:48:01;;;;;;;9.38;6.35;;;9.00;99.90;;;;;;4887734;29;20197;-63
2023/04/27 04:50:27;;;;;;;7.00;6.30;;;9.10;99.90;;;;;;4887932;29;20216;-63
2023/04/27 04:52:53;;;;;;;8.00;5.95;;;9.10;99.90;;;;;;4886175;29;20196;-62
2023/04/27 04:55:18;;;;;;;10.23;8.10;;;9.40;99.90;;;;;;4886839;29;20235;-62
2023/04/27 04:57:44;;;;;;;7.77;6.20;;;9.50;99.90;;;;;;4889551;29;20199;-63
2023/04/27 05:00:13;;;;;;;6.50;5.70;;;9.40;99.90;;;;;;4885965;29;20708;-62
2023/04/27 05:02:39;;;;;;;9.52;6.35;;;9.10;99.90;;;;;;4887791;29;20243;-62
2023/04/27 05:05:05;;;;;;;8.95;5.57;;;9.20;99.90;;;;;;4887670;29;20204;-63
2023/04/27 05:07:31;;;;;;;7.72;5.32;;;9.50;99.90;;;;;;4884728;29;20204;-63
2023/04/27 05:09:57;;;;;;;6.28;5.53;;;9.60;99.90;;;;;;4888260;29;20268;-60
2023/04/27 05:12:23;;;;;;;9.00;5.80;;;8.90;99.90;;;;;;4885803;29;20212;-60
2023/04/27 05:14:50;;;;;;;6.20;5.60;;;9.40;99.90;;;;;;4887638;29;20243;-60
2023/04/27 05:17:15;;;;;;;6.35;5.75;;;9.50;99.90;;;;;;4885323;29;20679;-59
2023/04/27 05:19:41;;;;;;;5.87;5.20;;;9.50;99.90;;;;;;4887969;29;20335;-60
2023/04/27 05:22:07;;;;;;;10.10;6.60;;;9.50;99.90;;;;;;4886513;29;20568;-61
2023/04/27 05:24:32;;;;;;;8.40;5.90;;;9.70;99.90;;;;;;4890732;29;20267;-60
2023/04/27 05:26:58;;;;;;;6.70;5.90;;;9.80;99.90;;;;;;4889549;29;20204;-59
2023/04/27 05:29:24;;;;;;;8.43;6.40;;;10.00;99.90;;;;;;4891712;29;20223;-60
2023/04/27 05:31:49;;;;;;;7.40;5.90;;;9.70;99.90;;;;;;4889679;29;20720;-60
2023/04/27 05:34:15;;;;;;;10.10;6.20;;;9.70;99.90;;;;;;4890043;29;20219;-59
2023/04/27 05:36:41;;;;;;;7.40;6.27;;;9.90;99.90;;;;;;4891764;29;20185;-62
2023/04/27 05:39:07;;;;;;;7.73;6.83;;;9.90;99.90;;;;;;4889019;29;20504;-62
2023/04/27 05:41:32;;;;;;;8.00;6.83;;;9.80;99.90;;;;;;4893251;29;20189;-63
2023/04/27 05:43:58;;;;;;;10.27;8.57;;;10.30;99.90;;;;;;4886990;29;20641;-64
2023/04/27 05:46:23;;;;;;;10.60;6.53;;;10.30;99.90;;;;;;4886356;29;20740;-63
2023/04/27 05:48:49;;;;;;;7.47;6.67;;;10.30;99.90;;;;;;4888647;29;20224;-64
2023/04/27 05:51:15;;;;;;;10.35;6.63;;;10.70;99.90;;;;;;4890494;29;20317;-68
2023/04/27 05:53:41;;;;;;;8.63;7.70;;;10.90;99.90;;;;;;4886373;29;20763;-69
2023/04/27 05:56:07;;;;;;;8.47;7.17;;;10.90;99.90;;;;;;4879513;29;20273;-67
2023/04/27 05:58:32;;;;;;;8.53;7.47;;;11.00;99.90;;;;;;4886567;29;20209;-66
2023/04/27 06:00:59;;;;;;;8.03;7.23;;;10.90;99.60;;;;;;4882511;29;20448;-66
2023/04/27 06:03:27;;;;;;;9.40;8.32;;;11.10;99.50;;;;;;4887000;29;20221;-65
2023/04/27 06:05:59;;;;;;;8.98;7.53;;;11.10;99.10;;;;;;4887007;29;20257;-66
2023/04/27 06:08:26;;;;;;;8.43;7.63;;;11.50;98.50;;;;;;4886387;29;20203;-63
2023/04/27 06:10:52;;;;;;;8.82;7.65;;;11.60;98.80;;;;;;4885152;29;20193;-69
2023/04/27 06:13:18;;;;;;;8.23;7.43;;;11.60;98.50;;;;;;4903489;29;20673;-68
2023/04/27 06:15:45;;;;;;;10.35;8.35;;;11.80;98.40;;;;;;4884190;29;20663;-69
2023/04/27 06:18:11;;;;;;;7.78;6.97;;;11.80;98.30;;;;;;4895606;29;20194;-67
2023/04/27 06:20:37;;;;;;;9.52;8.15;;;11.90;98.00;;;;;;4888189;29;20217;-63
2023/04/27 06:23:02;;;;;;;8.50;7.53;;;12.00;97.50;;;;;;4884586;29;20190;-72
2023/04/27 06:25:28;;;;;;;13.03;8.77;;;12.20;97.70;;;;;;4892052;29;20538;-68
2023/04/27 06:27:55;;;;;;;17.67;15.97;;;12.50;97.30;;;;;;4877970;29;20198;-70
2023/04/27 06:30:21;;;;;;;10.77;8.73;;;12.50;96.80;;;;;;4883327;29;20224;-64
2023/04/27 06:32:48;;;;;;;10.20;7.82;;;12.60;96.20;;;;;;4883300;29;20191;-65
2023/04/27 06:35:14;;;;;;;8.43;7.63;;;12.40;96.10;;;;;;4882431;29;20267;-66
2023/04/27 06:37:40;;;;;;;7.75;7.05;;;13.00;96.40;;;;;;4879705;29;20314;-72
2023/04/27 06:40:07;;;;;;;12.17;8.00;;;13.20;95.60;;;;;;4885290;29;20213;-71
2023/04/27 06:42:33;;;;;;;8.13;7.32;;;13.80;95.40;;;;;;4888668;29;20299;-71
2023/04/27 06:44:58;;;;;;;9.13;8.00;;;13.30;94.80;;;;;;4888983;29;20195;-71
2023/04/27 06:47:24;;;;;;;12.60;7.40;;;14.30;94.40;;;;;;4893401;29;20555;-71
2023/04/27 06:49:50;;;;;;;7.90;6.73;;;14.80;93.40;;;;;;4888162;29;20207;-69
2023/04/27 06:52:16;;;;;;;7.50;6.73;;;15.50;92.10;;;;;;4886217;29;20191;-69
2023/04/27 06:54:42;;;;;;;9.27;7.70;;;16.00;90.40;;;;;;4885431;29;20206;-72
2023/04/27 06:57:07;;;;;;;10.10;7.73;;;16.40;89.70;;;;;;4888182;29;20936;-69
2023/04/27 06:59:33;;;;;;;8.13;7.33;;;15.70;88.70;;;;;;4886611;29;20696;-64
2023/04/27 07:01:59;;;;;;;11.43;8.10;;;15.50;89.90;;;;;;4879813;29;20228;-65
2023/04/27 07:04:24;;;;;;;9.40;7.63;;;15.80;89.20;;;;;;4886593;29;20630;-72
2023/04/27 07:06:50;;;;;;;8.97;7.60;;;16.10;87.50;;;;;;4887765;29;20190;-68
2023/04/27 07:09:16;;;;;;;7.67;6.90;;;16.40;86.30;;;;;;4889192;29;20222;-69
2023/04/27 07:11:41;;;;;;;7.20;6.50;;;17.50;83.70;;;;;;4893192;29;20190;-71
2023/04/27 07:14:07;;;;;;;6.90;6.20;;;20.00;78.10;;;;;;4886249;29;20198;-66
2023/04/27 07:16:32;;;;;;;8.40;6.33;;;21.50;70.90;;;;;;4884381;29;20282;-68
2023/04/27 07:18:58;;;;;;;7.60;6.90;;;21.50;64.00;;;;;;4886722;29;20213;-67
2023/04/27 07:21:24;;;;;;;10.13;6.80;;;20.00;66.10;;;;;;4902049;29;20218;-66
2023/04/27 07:23:49;;;;;;;7.20;6.50;;;20.70;66.30;;;;;;4883368;29;20191;-68
2023/04/27 07:26:26;;;;;;;6.20;5.73;;;21.10;63.70;;;;;;4883404;29;20194;-63
2023/04/27 07:28:54;;;;;;;8.30;6.17;;;21.90;61.70;;;;;;4882136;29;20263;-62
2023/04/27 07:31:20;;;;;;;8.50;6.53;;;22.80;60.90;;;;;;4881660;29;20449;-63
2023/04/27 07:33:46;;;;;;;8.03;6.87;;;23.00;59.20;;;;;;4885672;29;20338;-64
2023/04/27 07:36:12;;;;;;;8.57;5.63;;;25.70;56.40;;;;;;4886453;29;20525;-64
2023/04/27 07:38:38;;;;;;;6.70;6.20;;;27.30;51.00;;;;;;4889951;29;20991;-64
2023/04/27 07:41:04;;;;;;;7.27;6.23;;;28.50;46.90;;;;;;4884386;29;20194;-64
2023/04/27 07:43:34;;;;;;;7.17;6.50;;;27.00;47.20;;;;;;4881185;29;20678;-65
2023/04/27 07:46:00;;;;;;;6.33;5.63;;;26.40;47.70;;;;;;4882718;29;20464;-65
2023/04/27 07:48:27;;;;;;;8.43;6.10;;;25.20;47.20;;;;;;4884538;29;20461;-65
2023/04/27 07:50:53;;;;;;;6.67;6.07;;;26.30;47.70;;;;;;4884202;29;20462;-65
2023/04/27 07:53:19;;;;;;;6.87;6.17;;;27.40;44.80;;;;;;4889244;29;20470;-65
2023/04/27 07:55:45;;;;;;;8.37;7.67;;;28.00;44.60;;;;;;4890666;29;20849;-65
2023/04/27 07:58:11;;;;;;;8.13;7.30;;;29.00;42.70;;;;;;4886454;29;20968;-65
2023/04/27 08:00:37;;;;;;;8.40;7.60;;;29.80;40.90;;;;;;4891408;29;20290;-65
2023/04/27 08:03:03;;;;;;;10.50;9.60;;;30.30;40.10;;;;;;4885416;29;20537;-65
2023/04/27 08:05:29;;;;;;;5.10;4.60;;;30.00;39.30;;;;;;4898176;29;20202;-65
2023/04/27 08:07:55;;;;;;;5.67;4.90;;;29.60;39.10;;;;;;4888670;29;20447;-64
2023/04/27 08:10:21;;;;;;;8.00;5.00;;;30.10;37.50;;;;;;4886269;29;20463;-65
2023/04/27 08:12:47;;;;;;;5.90;5.30;;;29.20;37.80;;;;;;4885165;29;20813;-65
2023/04/27 08:15:12;;;;;;;5.43;5.03;;;27.60;39.10;;;;;;4887437;29;20845;-65
2023/04/27 08:17:40;;;;;;;7.03;5.47;;;27.30;40.60;;;;;;4885985;29;20225;-64
2023/04/27 08:20:08;;;;;;;4.90;4.50;;;27.70;40.00;;;;;;4887117;29;20204;-65
2023/04/27 08:22:34;;;;;;;4.80;4.40;;;26.60;40.20;;;;;;4890323;29;20445;-65
2023/04/27 08:24:59;;;;;;;4.53;4.13;;;25.90;40.70;;;;;;4893424;29;20458;-64
2023/04/27 08:27:25;;;;;;;4.77;4.17;;;25.60;40.70;;;;;;4891626;29;20246;-65
2023/04/27 08:29:51;;;;;;;4.33;3.93;;;25.40;41.40;;;;;;4892897;29;20262;-65
2023/04/27 08:32:16;;;;;;;5.57;4.10;;;25.10;41.20;;;;;;4888137;29;20202;-65
2023/04/27 08:34:43;;;;;;;4.57;4.17;;;25.30;42.10;;;;;;4891211;29;21072;-63
2023/04/27 08:37:09;;;;;;;4.53;3.57;;;26.10;41.10;;;;;;4888216;29;20186;-64
2023/04/27 08:39:35;;;;;;;6.50;4.50;;;26.20;40.50;;;;;;4893382;29;20473;-65
2023/04/27 08:42:00;;;;;;;4.10;3.70;;;27.00;40.10;;;;;;4887101;29;20668;-65
2023/04/27 08:44:26;;;;;;;4.70;4.20;;;27.30;38.20;;;;;;4888306;29;20207;-66
2023/04/27 08:46:52;;;;;;;4.33;3.70;;;26.10;39.10;;;;;;4886397;29;20615;-65
2023/04/27 08:49:17;;;;;;;4.20;3.80;;;26.20;39.00;;;;;;4894442;29;21098;-62
2023/04/27 08:51:43;;;;;;;6.07;3.77;;;26.80;39.20;;;;;;4886381;29;20247;-62
2023/04/27 08:54:15;;;;;;;4.23;3.83;;;27.20;38.20;;;;;;4890043;29;20184;-63
2023/04/27 08:56:47;;;;;;;4.73;3.90;;;28.20;37.00;;;;;;4891482;29;20454;-63
2023/04/27 08:59:16;;;;;;;4.63;4.10;;;27.90;37.10;;;;;;4891971;29;20880;-62
2023/04/27 09:01:48;;;;;;;5.83;4.10;;;26.90;38.70;;;;;;4891151;29;20453;-62
2023/04/27 09:04:14;;;;;;;4.47;4.07;;;25.90;39.10;;;;;;4898017;29;20960;-63
2023/04/27 09:06:40;;;;;;;8.37;5.00;;;26.00;39.00;;;;;;4894128;29;20497;-63
2023/04/27 09:09:06;;;;;;;4.63;4.20;;;25.70;40.40;;;;;;4891268;29;20509;-63
2023/04/27 09:11:34;;;;;;;4.53;4.13;;;26.10;39.80;;;;;;4897240;29;20197;-64
2023/04/27 09:14:02;;;;;;;9.73;8.77;;;26.40;38.40;;;;;;4894665;29;20541;-65
2023/04/27 09:16:29;;;;;;;5.20;4.60;;;26.00;38.10;;;;;;4891631;29;20470;-63
2023/04/27 09:18:57;;;;;;;6.20;5.07;;;25.60;40.50;;;;;;4894013;29;20467;-63
2023/04/27 09:21:29;;;;;;;7.40;5.07;;;25.10;42.90;;;;;;4894959;29;20446;-62
2023/04/27 09:23:56;;;;;;;6.27;5.17;;;24.90;42.50;;;;;;4891120;29;20490;-63
2023/04/27 09:26:26;;;;;;;5.40;5.00;;;24.60;42.90;;;;;;4897576;29;21022;-63
2023/04/27 09:28:56;;;;;;;9.27;5.67;;;24.70;43.60;;;;;;4896394;29;20467;-62
2023/04/27 09:31:33;;;;;;;5.53;4.63;;;24.00;42.40;;;;;;4897568;29;20477;-63
2023/04/27 09:33:59;;;;;;;4.47;4.07;;;23.60;43.20;;;;;;4892247;29;20971;-62
2023/04/27 09:36:25;;;;;;;5.50;5.00;;;23.40;43.70;;;;;;4896347;29;20469;-62
2023/04/27 09:38:51;;;;;;;6.40;4.90;;;22.70;44.60;;;;;;4887866;29;20207;-64
2023/04/27 09:41:17;;;;;;;7.83;5.67;;;22.70;45.20;;;;;;4892523;29;20439;-62
2023/04/27 09:43:44;;;;;;;5.97;5.47;;;22.90;44.50;;;;;;4889014;29;20443;-62
2023/04/27 09:46:15;;;;;;;5.10;4.60;;;22.90;45.10;;;;;;4891821;29;20633;-64
2023/04/27 09:48:41;;;;;;;7.20;5.43;;;22.90;45.00;;;;;;4891238;29;20468;-62
2023/04/27 09:51:07;;;;;;;5.53;4.70;;;22.90;45.50;;;;;;4891081;29;20538;-63
2023/04/27 09:53:38;;;;;;;5.40;4.93;;;23.00;45.20;;;;;;4888421;29;20496;-63
2023/04/27 09:56:27;;;;;;;6.10;5.07;;;23.00;44.40;;;;;;4890131;29;20474;-63
2023/04/27 09:59:16;;;;;;;5.47;4.97;;;24.00;44.00;;;;;;4890959;29;20461;-63
2023/04/27 10:01:50;;;;;;;5.20;4.80;;;24.20;43.90;;;;;;4889866;29;20795;-63
2023/04/27 10:04:35;;;;;;;10.23;5.20;;;25.00;43.50;;;;;;4889794;29;20445;-62
2023/04/27 10:07:13;;;;;;;7.43;5.17;;;24.90;42.80;;;;;;4905844;29;20513;-62
2023/04/27 10:09:45;;;;;;;6.80;5.07;;;25.00;43.00;;;;;;4889534;29;20874;-62
2023/04/27 10:12:21;;;;;;;5.03;4.57;;;24.70;42.50;;;;;;4889736;29;20458;-62
2023/04/27 10:14:57;;;;;;;5.00;4.50;;;23.90;42.60;;;;;;4891751;29;20996;-62
2023/04/27 10:17:28;;;;;;;5.70;5.17;;;22.90;44.40;;;;;;4890725;29;20756;-62
2023/04/27 10:20:02;;;;;;;7.30;5.27;;;22.40;45.10;;;;;;4890498;29;20550;-62
2023/04/27 10:22:40;;;;;;;7.97;5.23;;;21.90;45.40;;;;;;4888750;29;20514;-62
2023/04/27 10:25:17;;;;;;;6.43;5.63;;;21.10;46.50;;;;;;4890672;29;20494;-62
2023/04/27 10:27:51;;;;;;;4.97;4.57;;;20.60;48.60;;;;;;4888289;29;20191;-62
2023/04/27 10:30:18;;;;;;;8.52;5.57;;;20.40;48.50;;;;;;4882849;29;20257;-61
2023/04/27 10:32:55;;;;;;;5.75;5.13;;;20.20;48.90;;;;;;4890913;29;20191;-64
2023/04/27 10:35:31;;;;;;;7.05;5.70;;;19.80;48.60;;;;;;4886514;29;20309;-62
2023/04/27 10:38:30;;;;;;;5.55;4.75;;;20.10;49.60;;;;;;4888075;29;20215;-62
2023/04/27 10:41:01;;;;;;;6.72;5.15;;;19.90;50.10;;;;;;4879487;29;20235;-62
2023/04/27 10:43:32;;;;;;;6.05;5.13;;;20.00;49.60;;;;;;4887396;29;20649;-63
2023/04/27 10:46:11;;;;;;;6.40;4.65;;;20.20;50.10;;;;;;4883088;29;20226;-62
2023/04/27 10:48:42;;;;;;;6.90;6.10;;;21.10;49.30;;;;;;4887147;29;20207;-62
2023/04/27 10:51:07;;;;;;;5.83;5.27;;;21.90;48.70;;;;;;4888417;29;20440;-63
2023/04/27 10:53:34;;;;;;;5.90;5.30;;;22.20;47.10;;;;;;4886041;29;20497;-63
2023/04/27 10:56:00;;;;;;;6.20;5.40;;;22.30;46.70;;;;;;4888247;29;20279;-62
2023/04/27 10:58:26;;;;;;;6.17;5.40;;;22.70;46.50;;;;;;4887463;29;20443;-62
2023/04/27 11:00:52;;;;;;;5.73;4.93;;;23.40;46.80;;;;;;4888556;29;20451;-62
2023/04/27 11:03:22;;;;;;;9.10;5.67;;;23.60;44.60;;;;;;4887760;29;20207;-62
2023/04/27 11:05:57;;;;;;;6.67;6.07;;;23.30;46.30;;;;;;4885734;29;20639;-62
2023/04/27 11:08:23;;;;;;;6.10;5.50;;;23.80;45.90;;;;;;4889615;29;20526;-62
2023/04/27 11:10:50;;;;;;;5.13;4.60;;;23.90;44.60;;;;;;4886321;29;20599;-62
2023/04/27 11:13:27;;;;;;;6.50;5.77;;;23.40;44.00;;;;;;4888216;29;20193;-62
2023/04/27 11:15:55;;;;;;;7.40;5.97;;;23.30;45.00;;;;;;4885515;29;20474;-60
2023/04/27 11:18:23;;;;;;;5.60;5.10;;;23.10;45.40;;;;;;4888094;29;20507;-62
2023/04/27 11:20:51;;;;;;;5.27;4.67;;;23.20;44.50;;;;;;4889067;29;20451;-61
2023/04/27 11:23:27;;;;;;;4.97;4.23;;;23.40;44.60;;;;;;4885554;29;20462;-60
2023/04/27 11:25:54;;;;;;;4.77;4.33;;;23.00;44.00;;;;;;4886920;29;20471;-61
2023/04/27 11:28:21;;;;;;;6.10;5.50;;;23.10;44.30;;;;;;4887475;29;20443;-62
2023/04/27 11:30:54;;;;;;;6.70;5.97;;;23.00;45.30;;;;;;4888500;29;20451;-61
2023/04/27 11:33:21;;;;;;;5.57;5.07;;;23.20;44.90;;;;;;4885448;29;20515;-61
2023/04/27 11:35:46;;;;;;;5.63;5.13;;;22.40;43.80;;;;;;4887120;29;20862;-62
2023/04/27 11:38:17;;;;;;;5.43;4.93;;;23.10;44.00;;;;;;4891364;29;20463;-61
2023/04/27 11:40:46;;;;;;;5.97;5.37;;;23.70;43.30;;;;;;4889152;29;20206;-61
2023/04/27 11:43:13;;;;;;;7.40;5.10;;;23.40;43.50;;;;;;4885091;29;20453;-61
2023/04/27 11:45:43;;;;;;;5.60;5.07;;;22.70;43.90;;;;;;4884958;29;20458;-62
2023/04/27 11:48:14;;;;;;;6.37;5.70;;;23.10;44.90;;;;;;4885883;29;20447;-62
2023/04/27 11:50:40;;;;;;;6.30;5.70;;;23.20;44.90;;;;;;4901519;29;20461;-62
2023/04/27 11:53:06;;;;;;;6.40;5.20;;;22.50;45.30;;;;;;4888792;29;20456;-61
2023/04/27 11:55:36;;;;;;;6.93;5.17;;;22.20;46.00;;;;;;4887278;29;20474;-61
2023/04/27 11:58:01;;;;;;;6.30;5.30;;;22.10;45.90;;;;;;4888379;29;20453;-61
2023/04/27 12:00:27;;;;;;;5.83;5.33;;;21.60;46.50;;;;;;4883763;29;20980;-62
2023/04/27 12:02:53;;;;;;;5.30;4.80;;;21.00;47.50;;;;;;4887062;29;20187;-62
2023/04/27 12:05:19;;;;;;;7.17;5.37;;;20.70;47.40;;;;;;4890359;29;20202;-62
2023/04/27 12:07:45;;;;;;;6.68;5.18;;;21.10;48.60;;;;;;4889008;29;20183;-61
2023/04/27 12:10:10;;;;;;;6.00;5.40;;;20.70;48.20;;;;;;4883175;29;20597;-62
2023/04/27 12:12:36;;;;;;;5.57;5.10;;;20.90;49.30;;;;;;4885581;29;20197;-61
2023/04/27 12:15:02;;;;;;;8.27;5.90;;;21.00;48.80;;;;;;4887412;29;20222;-62
2023/04/27 12:17:28;;;;;;;7.93;5.13;;;20.80;49.60;;;;;;4887317;29;20362;-61
2023/04/27 12:19:54;;;;;;;5.55;4.68;;;20.70;48.30;;;;;;4886836;29;20637;-61
2023/04/27 12:22:19;;;;;;;6.07;5.57;;;20.70;48.20;;;;;;4889610;29;20286;-61
2023/04/27 12:24:45;;;;;;;6.77;4.90;;;20.80;49.10;;;;;;4886301;29;20206;-61
2023/04/27 12:27:11;;;;;;;7.07;5.50;;;20.60;48.40;;;;;;4886487;29;20257;-63
2023/04/27 12:29:37;;;;;;;6.82;5.03;;;20.50;48.30;;;;;;4886982;29;20758;-62
2023/04/27 12:32:03;;;;;;;6.50;5.78;;;20.40;48.00;;;;;;4886123;29;20367;-63
2023/04/27 12:34:29;;;;;;;8.13;5.53;;;20.40;48.30;;;;;;4888481;29;20225;-63
2023/04/27 12:36:55;;;;;;;5.60;5.10;;;20.50;48.40;;;;;;4885307;29;20537;-62
2023/04/27 12:39:24;;;;;;;6.00;5.50;;;20.20;48.60;;;;;;4886122;29;20292;-63
2023/04/27 12:41:50;;;;;;;6.03;5.43;;;20.20;49.50;;;;;;4887989;29;20443;-64
2023/04/27 12:44:17;;;;;;;6.50;5.70;;;20.20;49.90;;;;;;4888256;29;20567;-60
2023/04/27 12:46:43;;;;;;;7.10;5.38;;;20.20;50.00;;;;;;4882348;29;20447;-61
2023/04/27 12:49:09;;;;;;;6.70;6.05;;;20.00;49.60;;;;;;4886034;29;20215;-61